createdAt,value
2024-02-19T00:02:16.163Z,102423.69
2024-02-19T00:05:21.463Z,102430.64
2024-02-19T00:08:24.861Z,102434.88
2024-02-19T00:11:22.390Z,102438.81
2024-02-19T00:14:27.840Z,102434.27
2024-02-19T00:17:33.365Z,102425.30
2024-02-19T00:20:34.899Z,102427.52
2024-02-19T00:23:28.110Z,102412.89
2024-02-19T00:26:40.818Z,102394.89
2024-02-19T00:29:35.809Z,102370.27
2024-02-19T00:32:41.516Z,102390.52
2024-02-19T00:35:55.209Z,102403.98
2024-02-19T00:39:00.592Z,102390.33
2024-02-19T00:42:13.284Z,102395.58
2024-02-19T00:45:26.408Z,102399.86
2024-02-19T00:48:28.363Z,102395.71
2024-02-19T00:51:41.224Z,102405.57
2024-02-19T00:54:48.751Z,102396.34
2024-02-19T00:57:44.557Z,102395.63
2024-02-19T01:00:59.833Z,102379.42
2024-02-19T01:04:03.070Z,102365.44
2024-02-19T01:07:17.490Z,102340.91
2024-02-19T01:10:30.448Z,102351.19
2024-02-19T01:13:37.446Z,102356.17
2024-02-19T01:16:30.524Z,102367.02
2024-02-19T01:19:34.561Z,102354.59
2024-02-19T01:22:40.547Z,102360.02
2024-02-19T01:25:47.474Z,102359.66
2024-02-19T01:28:57.917Z,102370.06
2024-02-19T01:31:53.235Z,102377.08
2024-02-19T01:34:48.257Z,102387.16
2024-02-19T01:37:43.504Z,102382.10
2024-02-19T01:40:39.085Z,102381.13
2024-02-19T01:43:45.617Z,102394.96
2024-02-19T01:46:42.175Z,102394.82
2024-02-19T01:49:55.757Z,102385.64
2024-02-19T01:53:12.220Z,102381.86
2024-02-19T01:56:11.365Z,102386.25
2024-02-19T01:59:18.789Z,102394.39
2024-02-19T02:02:23.417Z,102386.29
2024-02-19T02:05:30.532Z,102381.95
2024-02-19T02:08:43.399Z,102384.14
2024-02-19T02:11:48.950Z,102395.27
2024-02-19T02:14:53.576Z,102390.96
2024-02-19T02:18:06.593Z,102377.10
2024-02-19T02:20:59.576Z,102396.23
2024-02-19T02:24:12.686Z,102394.33
2024-02-19T02:27:05.684Z,102394.21
2024-02-19T02:30:13.245Z,102403.35
2024-02-19T02:33:06.278Z,102387.30
2024-02-19T02:35:59.295Z,102379.11
2024-02-19T02:38:52.379Z,102387.38
2024-02-19T02:41:48.844Z,102381.83
2024-02-19T02:44:52.616Z,102383.80
2024-02-19T02:48:05.535Z,102388.36
2024-02-19T02:51:18.496Z,102393.29
2024-02-19T02:54:21.340Z,102390.59
2024-02-19T02:57:23.895Z,102393.58
2024-02-19T03:00:37.091Z,102392.81
2024-02-19T03:03:48.782Z,102370.36
2024-02-19T03:07:02.342Z,102376.14
2024-02-19T03:10:04.053Z,102377.59
2024-02-19T03:13:01.521Z,102376.97
2024-02-19T03:15:56.976Z,102382.04
2024-02-19T03:18:49.838Z,102384.22
2024-02-19T03:22:01.643Z,102384.83
2024-02-19T03:25:13.684Z,102382.10
2024-02-19T03:28:18.310Z,102391.52
2024-02-19T03:31:31.352Z,102392.38
2024-02-19T03:34:37.988Z,102400.06
2024-02-19T03:37:41.175Z,102402.70
2024-02-19T03:40:46.637Z,102413.70
2024-02-19T03:43:50.900Z,102423.54
2024-02-19T03:47:03.618Z,102427.89
2024-02-19T03:50:15.627Z,102427.59
2024-02-19T03:53:21.730Z,102424.82
2024-02-19T03:56:14.345Z,102418.73
2024-02-19T03:59:20.812Z,102424.54
2024-02-19T04:02:25.282Z,102429.05
2024-02-19T04:05:31.343Z,102429.80
2024-02-19T04:08:44.338Z,102427.16
2024-02-19T04:11:47.489Z,102431.29
2024-02-19T04:14:45.183Z,102431.09
2024-02-19T04:17:57.880Z,102425.94
2024-02-19T04:21:10.773Z,102425.86
2024-02-19T04:24:23.713Z,102425.25
2024-02-19T04:27:22.223Z,102422.59
2024-02-19T04:30:49.176Z,102420.43
2024-02-19T04:34:02.093Z,102414.75
2024-02-19T04:37:13.482Z,102420.37
2024-02-19T04:40:26.152Z,102423.98
2024-02-19T04:43:39.239Z,102423.66
2024-02-19T04:46:41.666Z,102433.09
2024-02-19T04:49:54.581Z,102435.44
2024-02-19T04:52:57.844Z,102442.10
2024-02-19T04:55:50.256Z,102451.73
2024-02-19T04:59:03.400Z,102452.38
2024-02-19T05:01:56.855Z,102457.17
2024-02-19T05:04:55.252Z,102460.11
2024-02-19T05:08:07.842Z,102462.73
2024-02-19T05:11:00.769Z,102462.24
2024-02-19T05:14:13.720Z,102467.35
2024-02-19T05:17:18.470Z,102472.02
2024-02-19T05:20:14.510Z,102476.64
2024-02-19T05:23:07.311Z,102480.98
2024-02-19T05:26:28.482Z,102489.57
2024-02-19T05:29:41.143Z,102502.04
2024-02-19T05:32:46.692Z,102504.57
2024-02-19T05:35:51.336Z,102503.27
2024-02-19T05:38:56.529Z,102508.14
2024-02-19T05:41:52.006Z,102510.32
2024-02-19T05:44:47.825Z,102507.81
2024-02-19T05:47:40.535Z,102507.48
2024-02-19T05:50:53.136Z,102513.42
2024-02-19T05:53:55.920Z,102512.35
2024-02-19T05:56:52.042Z,102513.73
2024-02-19T05:59:58.855Z,102516.16
2024-02-19T06:03:05.472Z,102521.38
2024-02-19T06:06:18.161Z,102522.17
2024-02-19T06:09:21.052Z,102524.24
2024-02-19T06:12:33.850Z,102525.41
2024-02-19T06:15:36.702Z,102525.20
2024-02-19T06:18:41.778Z,102524.83
2024-02-19T06:21:46.252Z,102526.91
2024-02-19T06:24:44.612Z,102537.66
2024-02-19T06:27:50.043Z,102531.46
2024-02-19T06:31:03.586Z,102533.45
2024-02-19T06:34:16.566Z,102534.14
2024-02-19T06:37:22.947Z,102532.61
2024-02-19T06:40:35.761Z,102535.52
2024-02-19T06:43:48.555Z,102533.61
2024-02-19T06:47:01.492Z,102541.20
2024-02-19T06:50:15.383Z,102546.36
2024-02-19T06:53:21.826Z,102544.30
2024-02-19T06:56:15.142Z,102544.30
2024-02-19T06:59:20.892Z,102546.94
2024-02-19T07:02:33.812Z,102553.28
2024-02-19T07:05:45.114Z,102552.69
2024-02-19T07:08:37.619Z,102559.66
2024-02-19T07:11:30.322Z,102566.27
2024-02-19T07:14:22.954Z,102570.13
2024-02-19T07:17:20.892Z,102567.04
2024-02-19T07:20:27.661Z,102571.27
2024-02-19T07:23:32.662Z,102572.60
2024-02-19T07:26:27.860Z,102575.80
2024-02-19T07:29:39.885Z,102578.99
2024-02-19T07:32:32.540Z,102585.12
2024-02-19T07:35:45.384Z,102582.71
2024-02-19T07:38:51.883Z,102581.31
2024-02-19T07:42:04.337Z,102579.98
2024-02-19T07:45:08.127Z,102582.84
2024-02-19T07:48:20.696Z,102585.83
2024-02-19T07:51:20.950Z,102587.38
2024-02-19T07:54:27.032Z,102595.30
2024-02-19T07:57:39.957Z,102604.29
2024-02-19T08:00:53.151Z,102609.87
2024-02-19T08:04:06.830Z,102614.04
2024-02-19T08:07:21.521Z,102621.38
2024-02-19T08:10:17.098Z,102624.84
2024-02-19T08:13:23.438Z,102633.05
2024-02-19T08:16:16.665Z,102632.86
2024-02-19T08:19:09.430Z,102638.63
2024-02-19T08:22:02.038Z,102645.28
2024-02-19T08:25:09.302Z,102647.39
2024-02-19T08:28:13.288Z,102650.95
2024-02-19T08:31:08.489Z,102650.95
2024-02-19T08:34:21.839Z,102650.39
2024-02-19T08:37:27.373Z,102649.01
2024-02-19T08:40:30.779Z,102650.55
2024-02-19T08:43:34.130Z,102655.85
2024-02-19T08:46:36.726Z,102657.30
2024-02-19T08:49:33.250Z,102656.86
2024-02-19T08:52:45.886Z,102659.83
2024-02-19T08:55:45.654Z,102661.46
2024-02-19T08:58:50.328Z,102665.30
2024-02-19T09:01:59.004Z,102664.08
2024-02-19T09:04:52.100Z,102660.45
2024-02-19T09:07:58.103Z,102664.30
2024-02-19T09:11:02.157Z,102663.10
2024-02-19T09:14:07.501Z,102669.69
2024-02-19T09:17:00.389Z,102670.73
2024-02-19T09:20:04.229Z,102673.41
2024-02-19T09:22:56.730Z,102677.48
2024-02-19T09:26:02.210Z,102675.24
2024-02-19T09:28:54.522Z,102680.84
2024-02-19T09:32:01.741Z,102684.27
2024-02-19T09:34:54.403Z,102687.73
2024-02-19T09:38:07.583Z,102687.42
2024-02-19T09:41:06.034Z,102689.42
2024-02-19T09:43:58.568Z,102686.59
2024-02-19T09:46:59.224Z,102689.41
2024-02-19T09:49:52.434Z,102700.14
2024-02-19T09:52:47.263Z,102704.54
2024-02-19T09:55:39.369Z,102708.17
2024-02-19T09:58:37.032Z,102703.98
2024-02-19T10:01:29.773Z,102699.17
2024-02-19T10:04:22.789Z,102700.14
2024-02-19T10:07:17.881Z,102695.27
2024-02-19T10:10:18.548Z,102691.61
2024-02-19T10:13:13.449Z,102687.68
2024-02-19T10:16:07.716Z,102687.18
2024-02-19T10:19:09.137Z,102681.02
2024-02-19T10:22:02.689Z,102682.06
2024-02-19T10:24:56.020Z,102684.27
2024-02-19T10:28:00.162Z,102683.66
2024-02-19T10:30:52.829Z,102681.91
2024-02-19T10:33:46.364Z,102680.27
2024-02-19T10:36:39.771Z,102679.70
2024-02-19T10:39:52.711Z,102676.88
2024-02-19T10:42:45.484Z,102683.95
2024-02-19T10:45:44.009Z,102683.34
2024-02-19T10:48:39.912Z,102689.50
2024-02-19T10:51:33.401Z,102691.67
2024-02-19T10:54:25.852Z,102696.90
2024-02-19T10:57:22.267Z,102703.17
2024-02-19T11:00:27.412Z,102709.91
2024-02-19T11:03:19.366Z,102716.31
2024-02-19T11:06:13.356Z,102726.06
2024-02-19T11:09:14.115Z,102733.37
2024-02-19T11:12:07.836Z,102730.79
2024-02-19T11:15:03.409Z,102713.29
2024-02-19T11:18:09.941Z,102706.94
2024-02-19T11:21:08.433Z,102688.36
2024-02-19T11:24:00.647Z,102696.67
2024-02-19T11:26:53.063Z,102702.63
2024-02-19T11:29:48.179Z,102711.60
2024-02-19T11:32:41.144Z,102711.09
2024-02-19T11:35:36.753Z,102710.81
2024-02-19T11:38:31.419Z,102713.83
2024-02-19T11:41:23.421Z,102715.17
2024-02-19T11:44:16.850Z,102714.73
2024-02-19T11:47:11.262Z,102719.69
2024-02-19T11:50:06.298Z,102723.90
2024-02-19T11:53:00.200Z,102724.44
2024-02-19T11:56:02.700Z,102725.09
2024-02-19T11:58:55.911Z,102734.00
2024-02-19T12:01:53.925Z,102735.08
2024-02-19T12:04:52.113Z,102746.84
2024-02-19T12:07:44.932Z,102749.06
2024-02-19T12:10:39.871Z,102747.64
2024-02-19T12:13:34.038Z,102746.98
2024-02-19T12:16:29.384Z,102741.91
2024-02-19T12:19:21.900Z,102742.74
2024-02-19T12:22:14.280Z,102740.02
2024-02-19T12:25:07.364Z,102743.86
2024-02-19T12:28:00.345Z,102745.85
2024-02-19T12:30:53.104Z,102739.58
2024-02-19T12:33:46.474Z,102738.65
2024-02-19T12:36:39.260Z,102742.21
2024-02-19T12:39:32.118Z,102734.82
2024-02-19T12:42:25.155Z,102727.34
2024-02-19T12:45:19.026Z,102724.95
2024-02-19T12:48:15.007Z,102720.09
2024-02-19T12:51:09.096Z,102716.09
2024-02-19T12:54:01.124Z,102719.84
2024-02-19T12:56:53.572Z,102719.86
2024-02-19T12:59:48.272Z,102716.24
2024-02-19T13:02:41.174Z,102716.86
2024-02-19T13:05:36.936Z,102719.09
2024-02-19T13:08:31.995Z,102713.27
2024-02-19T13:11:26.609Z,102707.27
2024-02-19T13:14:19.337Z,102704.27
2024-02-19T13:17:15.100Z,102701.06
2024-02-19T13:20:14.509Z,102700.59
2024-02-19T13:23:06.720Z,102693.05
2024-02-19T13:26:03.969Z,102687.21
2024-02-19T13:28:56.473Z,102677.82
2024-02-19T13:31:49.154Z,102679.55
2024-02-19T13:34:41.951Z,102680.59
2024-02-19T13:37:35.226Z,102683.59
2024-02-19T13:40:27.828Z,102681.45
2024-02-19T13:43:21.689Z,102676.73
2024-02-19T13:46:14.728Z,102680.02
2024-02-19T13:49:12.222Z,102681.15
2024-02-19T13:52:05.285Z,102676.48
2024-02-19T13:55:00.140Z,102665.94
2024-02-19T13:57:53.435Z,102663.55
2024-02-19T14:00:47.273Z,102664.01
2024-02-19T14:03:39.597Z,102658.92
2024-02-19T14:06:34.030Z,102661.33
2024-02-19T14:09:29.908Z,102656.40
2024-02-19T14:12:22.314Z,102659.34
2024-02-19T14:15:15.046Z,102657.48
2024-02-19T14:18:11.822Z,102649.62
2024-02-19T14:21:06.044Z,102647.03
2024-02-19T14:24:02.077Z,102647.95
2024-02-19T14:26:54.785Z,102650.52
2024-02-19T14:29:50.026Z,102647.11
2024-02-19T14:32:44.310Z,102650.27
2024-02-19T14:35:37.057Z,102653.00
2024-02-19T14:38:29.728Z,102655.81
2024-02-19T14:41:33.199Z,102658.68
2024-02-19T14:44:26.090Z,102659.64
2024-02-19T14:47:18.614Z,102659.36
2024-02-19T14:50:13.122Z,102655.78
2024-02-19T14:53:09.145Z,102658.67
2024-02-19T14:56:03.912Z,102655.77
2024-02-19T14:58:57.586Z,102654.72
2024-02-19T15:01:50.080Z,102655.11
2024-02-19T15:04:43.082Z,102654.16
2024-02-19T15:07:35.745Z,102651.33
2024-02-19T15:10:29.429Z,102651.45
2024-02-19T15:13:23.914Z,102653.40
2024-02-19T15:16:16.517Z,102654.65
2024-02-19T15:19:18.860Z,102660.79
2024-02-19T15:22:14.912Z,102658.20
2024-02-19T15:25:12.135Z,102652.20
2024-02-19T15:28:13.928Z,102654.62
2024-02-19T15:31:09.222Z,102657.58
2024-02-19T15:34:02.152Z,102658.05
2024-02-19T15:36:54.798Z,102650.77
2024-02-19T15:39:50.325Z,102651.30
2024-02-19T15:42:45.618Z,102650.89
2024-02-19T15:45:39.481Z,102653.34
2024-02-19T15:48:34.087Z,102651.29
2024-02-19T15:51:31.074Z,102655.31
2024-02-19T15:54:30.917Z,102655.79
2024-02-19T15:57:24.111Z,102652.17
2024-02-19T16:00:19.102Z,102649.70
2024-02-19T16:03:23.373Z,102648.65
2024-02-19T16:06:19.344Z,102640.76
2024-02-19T16:09:21.353Z,102641.29
2024-02-19T16:12:13.893Z,102637.11
2024-02-19T16:15:09.757Z,102636.38
2024-02-19T16:18:14.551Z,102637.17
2024-02-19T16:21:15.012Z,102634.85
2024-02-19T16:24:08.740Z,102630.86
2024-02-19T16:27:06.518Z,102626.00
2024-02-19T16:30:06.266Z,102622.66
2024-02-19T16:33:02.016Z,102618.17
2024-02-19T16:35:54.960Z,102617.88
2024-02-19T16:38:48.550Z,102619.97
2024-02-19T16:41:50.492Z,102615.20
2024-02-19T16:44:43.089Z,102615.98
2024-02-19T16:47:35.906Z,102613.30
2024-02-19T16:50:28.954Z,102612.20
2024-02-19T16:53:21.351Z,102613.31
2024-02-19T16:56:23.831Z,102617.79
2024-02-19T16:59:37.714Z,102617.86
2024-02-19T17:02:40.247Z,102619.83
2024-02-19T17:05:35.729Z,102623.30
2024-02-19T17:08:28.791Z,102624.01
2024-02-19T17:11:30.595Z,102621.99
2024-02-19T17:14:23.347Z,102623.41
2024-02-19T17:17:15.984Z,102633.48
2024-02-19T17:20:20.066Z,102633.34
2024-02-19T17:23:21.584Z,102630.41
2024-02-19T17:26:14.116Z,102624.10
2024-02-19T17:29:09.373Z,102628.09
2024-02-19T17:32:05.198Z,102619.75
2024-02-19T17:35:05.728Z,102619.95
2024-02-19T17:37:58.286Z,102611.95
2024-02-19T17:40:51.062Z,102610.23
2024-02-19T17:43:54.628Z,102610.67
2024-02-19T17:47:08.716Z,102617.00
2024-02-19T17:50:02.092Z,102628.32
2024-02-19T17:52:56.760Z,102622.55
2024-02-19T17:56:01.406Z,102616.17
2024-02-19T17:59:06.806Z,102618.34
2024-02-19T18:02:13.304Z,102621.05
2024-02-19T18:05:05.760Z,102621.17
2024-02-19T18:08:06.292Z,102618.23
2024-02-19T18:11:02.629Z,102620.61
2024-02-19T18:14:06.896Z,102618.59
2024-02-19T18:17:20.211Z,102616.15
2024-02-19T18:20:34.378Z,102614.98
2024-02-19T18:23:48.629Z,102611.52
2024-02-19T18:26:41.116Z,102601.41
2024-02-19T18:29:46.489Z,102593.88
2024-02-19T18:32:50.540Z,102589.21
2024-02-19T18:35:42.989Z,102581.89
2024-02-19T18:38:56.270Z,102578.32
2024-02-19T18:41:58.938Z,102565.23
2024-02-19T18:45:13.093Z,102554.99
2024-02-19T18:48:16.786Z,102546.89
2024-02-19T18:51:19.404Z,102554.61
2024-02-19T18:54:23.737Z,102563.27
2024-02-19T18:57:16.726Z,102569.61
2024-02-19T19:00:20.368Z,102570.27
2024-02-19T19:03:28.523Z,102574.63
2024-02-19T19:06:31.691Z,102578.14
2024-02-19T19:09:45.275Z,102567.34
2024-02-19T19:12:37.993Z,102568.52
2024-02-19T19:15:54.924Z,102566.92
2024-02-19T19:18:50.270Z,102565.80
2024-02-19T19:21:44.477Z,102572.52
2024-02-19T19:24:43.609Z,102575.87
2024-02-19T19:27:43.452Z,102576.43
2024-02-19T19:30:46.562Z,102574.73
2024-02-19T19:33:45.595Z,102572.05
2024-02-19T19:36:41.565Z,102574.38
2024-02-19T19:39:54.803Z,102586.89
2024-02-19T19:43:07.755Z,102588.65
2024-02-19T19:46:16.034Z,102587.84
2024-02-19T19:49:23.772Z,102584.41
2024-02-19T19:52:26.714Z,102586.02
2024-02-19T19:55:19.272Z,102580.62
2024-02-19T19:58:33.427Z,102572.07
2024-02-19T20:01:25.811Z,102567.05
2024-02-19T20:04:21.081Z,102557.96
2024-02-19T20:07:27.859Z,102544.13
2024-02-19T20:10:20.497Z,102540.46
2024-02-19T20:13:25.713Z,102531.77
2024-02-19T20:16:22.366Z,102529.91
2024-02-19T20:19:15.569Z,102521.59
2024-02-19T20:22:08.556Z,102519.95
2024-02-19T20:25:00.909Z,102515.89
2024-02-19T20:28:07.586Z,102505.70
2024-02-19T20:31:20.283Z,102488.31
2024-02-19T20:34:23.321Z,102471.46
2024-02-19T20:37:30.512Z,102465.59
2024-02-19T20:40:23.205Z,102456.17
2024-02-19T20:43:29.827Z,102450.15
2024-02-19T20:46:23.077Z,102437.71
2024-02-19T20:49:15.596Z,102425.30
2024-02-19T20:52:09.322Z,102428.15
2024-02-19T20:55:01.944Z,102432.21
2024-02-19T20:57:56.126Z,102437.85
2024-02-19T21:00:48.622Z,102440.70
2024-02-19T21:03:45.809Z,102447.39
2024-02-19T21:06:42.286Z,102448.23
2024-02-19T21:09:36.543Z,102441.86
2024-02-19T21:12:32.531Z,102437.48
2024-02-19T21:15:25.610Z,102437.00
2024-02-19T21:18:30.624Z,102439.06
2024-02-19T21:21:33.932Z,102441.50
2024-02-19T21:24:27.811Z,102436.09
2024-02-19T21:27:20.822Z,102430.23
2024-02-19T21:30:14.302Z,102431.55
2024-02-19T21:33:07.122Z,102424.48
2024-02-19T21:36:09.019Z,102416.52
2024-02-19T21:39:06.892Z,102421.48
2024-02-19T21:41:59.573Z,102421.45
2024-02-19T21:44:52.465Z,102419.52
2024-02-19T21:47:45.855Z,102425.77
2024-02-19T21:50:38.643Z,102429.63
2024-02-19T21:53:31.223Z,102427.63
2024-02-19T21:56:43.894Z,102430.02
2024-02-19T21:59:57.111Z,102430.21
2024-02-19T22:02:49.812Z,102428.08
2024-02-19T22:05:45.803Z,102424.34
2024-02-19T22:09:01.417Z,102424.84
2024-02-19T22:11:54.269Z,102426.30
2024-02-19T22:14:56.697Z,102420.72
2024-02-19T22:17:49.522Z,102423.90
2024-02-19T22:20:42.089Z,102430.39
2024-02-19T22:23:47.844Z,102425.52
2024-02-19T22:26:40.005Z,102415.28
2024-02-19T22:29:35.872Z,102407.11
2024-02-19T22:32:33.257Z,102407.27
2024-02-19T22:35:37.939Z,102404.42
2024-02-19T22:38:30.565Z,102390.55
2024-02-19T22:41:45.673Z,102383.73
2024-02-19T22:44:41.574Z,102382.72
2024-02-19T22:47:43.123Z,102383.79
2024-02-19T22:50:56.313Z,102388.34
2024-02-19T22:53:48.789Z,102375.48
2024-02-19T22:57:02.794Z,102372.02
2024-02-19T23:00:27.525Z,102359.13
2024-02-19T23:03:33.290Z,102360.36
2024-02-19T23:06:46.713Z,102358.80
2024-02-19T23:09:51.817Z,102360.48
2024-02-19T23:13:03.313Z,102352.06
2024-02-19T23:15:56.284Z,102346.14
2024-02-19T23:18:49.247Z,102339.08
2024-02-19T23:21:42.044Z,102331.46
2024-02-19T23:24:40.203Z,102327.89
2024-02-19T23:27:52.903Z,102324.30
2024-02-19T23:31:05.842Z,102319.42
2024-02-19T23:34:11.784Z,102317.41
2024-02-19T23:37:13.213Z,102311.95
2024-02-19T23:40:20.543Z,102307.08
2024-02-19T23:43:22.367Z,102295.50
2024-02-19T23:46:27.295Z,102300.55
2024-02-19T23:49:34.190Z,102302.88
2024-02-19T23:52:26.873Z,102294.96
2024-02-19T23:55:39.728Z,102288.19
2024-02-19T23:58:33.495Z,102292.12
